createdAt,value
2022-11-04T00:02:55.226Z,12.90
2022-11-04T00:06:03.226Z,14.80
2022-11-04T00:09:11.056Z,13.30
2022-11-04T00:12:26.359Z,14.40
2022-11-04T00:15:50.135Z,16.50
2022-11-04T00:18:56.247Z,14.40
2022-11-04T00:22:19.975Z,12.60
2022-11-04T00:25:44.068Z,9.90
2022-11-04T00:28:53.192Z,10.20
2022-11-04T00:32:17.275Z,11.30
2022-11-04T00:35:24.259Z,10.70
2022-11-04T00:38:30.393Z,10.40
2022-11-04T00:41:36.401Z,10.80
2022-11-04T00:44:42.485Z,10.40
2022-11-04T00:47:48.738Z,13.50
2022-11-04T00:50:54.753Z,12.20
2022-11-04T00:54:01.096Z,8.80
2022-11-04T01:00:14.239Z,9.10
2022-11-04T01:03:20.347Z,13.80
2022-11-04T01:06:27.886Z,11.70
2022-11-04T01:09:34.233Z,11.90
2022-11-04T01:15:44.806Z,10.30
2022-11-04T01:18:51.059Z,8.70
2022-11-04T01:25:01.606Z,8.60
2022-11-04T01:28:07.921Z,8.00
2022-11-04T01:31:16.182Z,8.90
2022-11-04T01:34:22.259Z,7.70
2022-11-04T01:37:28.276Z,8.40
2022-11-04T01:40:39.690Z,7.50
2022-11-04T01:43:52.974Z,7.70
2022-11-04T01:46:59.964Z,7.50
2022-11-04T01:50:09.835Z,8.70
2022-11-04T01:53:20.268Z,9.90
2022-11-04T01:56:27.567Z,8.10
2022-11-04T01:59:37.854Z,8.60
2022-11-04T02:02:56.076Z,7.90
2022-11-04T02:06:03.783Z,8.00
2022-11-04T02:12:38.519Z,7.60
2022-11-04T02:15:54.110Z,8.30
2022-11-04T02:19:11.770Z,8.40
2022-11-04T02:22:38.187Z,7.80
2022-11-04T02:26:18.975Z,7.80
2022-11-04T02:29:47.654Z,7.10
2022-11-04T02:33:20.462Z,7.00
2022-11-04T02:36:35.298Z,7.30
2022-11-04T02:39:50.989Z,7.10
2022-11-04T02:43:02.698Z,7.40
2022-11-04T02:46:17.465Z,7.60
2022-11-04T02:49:29.841Z,7.50
2022-11-04T02:52:48.699Z,7.30
2022-11-04T02:55:59.922Z,6.90
2022-11-04T02:59:11.101Z,7.00
2022-11-04T03:02:21.448Z,5.90
2022-11-04T03:05:32.519Z,6.60
2022-11-04T03:08:41.584Z,7.00
2022-11-04T03:11:52.799Z,6.30
2022-11-04T03:15:05.167Z,5.70
2022-11-04T03:18:19.725Z,6.20
2022-11-04T03:21:29.425Z,6.70
2022-11-04T03:24:35.820Z,6.90
2022-11-04T03:30:54.349Z,6.90
2022-11-04T03:34:00.655Z,5.70
2022-11-04T03:40:13.872Z,6.50
2022-11-04T03:43:23.907Z,6.20
2022-11-04T03:46:30.117Z,6.10
2022-11-04T03:49:36.390Z,6.60
2022-11-04T03:56:00.806Z,6.20
2022-11-04T03:59:19.360Z,6.40
2022-11-04T04:02:35.356Z,5.60
2022-11-04T04:05:46.746Z,5.60
2022-11-04T04:08:57.179Z,6.30
2022-11-04T04:12:10.332Z,6.50
2022-11-04T04:15:23.990Z,6.20
2022-11-04T04:18:37.305Z,6.20
2022-11-04T04:21:48.486Z,5.70
2022-11-04T04:25:18.306Z,5.80
2022-11-04T04:28:25.577Z,5.90
2022-11-04T04:31:57.746Z,6.50
2022-11-04T04:35:21.647Z,8.70
2022-11-04T04:38:47.061Z,9.00
2022-11-04T04:42:12.579Z,8.70
2022-11-04T04:45:25.505Z,6.90
2022-11-04T04:48:31.751Z,7.00
2022-11-04T04:51:40.652Z,6.70
2022-11-04T04:54:47.584Z,6.40
2022-11-04T04:57:53.852Z,6.90
2022-11-04T05:04:04.612Z,5.50
2022-11-04T05:07:10.650Z,6.30
2022-11-04T05:10:18.031Z,4.90
2022-11-04T05:13:30.423Z,5.70
2022-11-04T05:16:40.547Z,5.00
2022-11-04T05:19:47.230Z,4.90
2022-11-04T05:26:01.160Z,5.10
2022-11-04T05:29:07.139Z,4.40
2022-11-04T05:32:13.325Z,4.70
2022-11-04T05:35:19.898Z,4.70
2022-11-04T05:38:26.250Z,5.10
2022-11-04T05:41:32.473Z,5.00
2022-11-04T05:47:43.082Z,5.30
2022-11-04T05:50:49.249Z,5.20
2022-11-04T05:53:55.936Z,4.70
2022-11-04T05:57:01.976Z,4.70
2022-11-04T06:00:10.120Z,5.40
2022-11-04T06:03:16.575Z,4.70
2022-11-04T06:06:24.485Z,4.70
2022-11-04T06:09:40.191Z,5.00
2022-11-04T06:12:46.703Z,4.90
2022-11-04T06:15:52.770Z,4.60
2022-11-04T06:19:01.716Z,6.50
2022-11-04T06:22:13.038Z,4.90
2022-11-04T06:25:19.256Z,4.70
2022-11-04T06:31:29.899Z,5.20
2022-11-04T06:34:36.006Z,4.50
2022-11-04T06:37:42.086Z,4.80
2022-11-04T06:40:48.153Z,4.20
2022-11-04T06:43:54.283Z,5.00
2022-11-04T06:47:00.548Z,4.60
2022-11-04T06:53:11.711Z,4.90
2022-11-04T06:56:17.987Z,5.80
2022-11-04T07:02:30.514Z,5.50
2022-11-04T07:05:37.703Z,7.90
2022-11-04T07:08:43.825Z,4.90
2022-11-04T07:11:50.735Z,4.90
2022-11-04T07:14:56.926Z,5.10
2022-11-04T07:21:10.217Z,5.30
2022-11-04T07:24:16.631Z,5.20
2022-11-04T07:27:22.783Z,4.60
2022-11-04T07:30:28.971Z,5.60
2022-11-04T07:33:35.998Z,5.80
2022-11-04T07:36:42.021Z,5.20
2022-11-04T07:39:48.114Z,5.60
2022-11-04T07:42:54.217Z,5.30
2022-11-04T07:46:05.437Z,5.30
2022-11-04T07:49:11.528Z,5.40
2022-11-04T07:52:17.694Z,5.50
2022-11-04T07:58:31.152Z,5.20
2022-11-04T08:01:37.368Z,5.80
2022-11-04T08:04:43.490Z,5.30
2022-11-04T08:07:49.542Z,4.70
2022-11-04T08:11:00.631Z,5.00
2022-11-04T08:14:07.732Z,5.00
2022-11-04T08:17:13.819Z,5.00
2022-11-04T08:20:20.238Z,5.20
2022-11-04T08:23:26.434Z,5.10
2022-11-04T08:26:33.068Z,5.20
2022-11-04T08:29:39.770Z,4.90
2022-11-04T08:32:45.744Z,5.10
2022-11-04T08:35:51.986Z,5.50
2022-11-04T08:42:03.331Z,4.80
2022-11-04T08:45:10.729Z,5.40
2022-11-04T08:48:17.654Z,5.00
2022-11-04T08:51:26.614Z,4.90
2022-11-04T08:54:32.826Z,6.10
2022-11-04T09:00:43.760Z,5.40
2022-11-04T09:06:56.415Z,5.50
2022-11-04T09:10:02.805Z,4.80
2022-11-04T09:13:10.898Z,5.20
2022-11-04T09:16:17.835Z,4.70
2022-11-04T09:19:23.918Z,5.10
2022-11-04T09:22:30.140Z,5.10
2022-11-04T09:28:41.645Z,9.40
2022-11-04T09:31:50.022Z,5.20
2022-11-04T09:34:56.244Z,5.40
2022-11-04T09:41:31.962Z,5.20
2022-11-04T09:45:14.935Z,4.70
2022-11-04T09:48:21.768Z,4.90
2022-11-04T09:55:02.327Z,4.50
2022-11-04T09:58:11.082Z,5.50
2022-11-04T10:01:29.135Z,4.70
2022-11-04T10:04:50.973Z,5.00
2022-11-04T10:08:22.002Z,5.40
2022-11-04T10:11:36.270Z,4.80
2022-11-04T10:14:58.018Z,4.90
2022-11-04T10:18:17.264Z,4.70
2022-11-04T10:21:37.469Z,5.40
2022-11-04T10:24:51.189Z,5.70
2022-11-04T10:27:58.172Z,6.60
2022-11-04T10:31:05.317Z,6.80
2022-11-04T10:34:18.905Z,5.70
2022-11-04T10:37:26.647Z,5.30
2022-11-04T10:40:39.007Z,5.30
2022-11-04T10:43:45.697Z,5.40
2022-11-04T10:47:00.676Z,5.50
2022-11-04T10:50:28.875Z,5.40
2022-11-04T10:53:37.839Z,5.00
2022-11-04T10:56:47.058Z,5.80
2022-11-04T10:59:58.781Z,6.00
2022-11-04T11:03:05.868Z,6.00
2022-11-04T11:06:22.340Z,6.50
2022-11-04T11:09:30.773Z,5.90
2022-11-04T11:12:51.788Z,6.10
2022-11-04T11:16:13.453Z,6.50
2022-11-04T11:19:22.389Z,6.50
2022-11-04T11:22:38.863Z,6.30
2022-11-04T11:25:51.900Z,7.10
2022-11-04T11:29:02.586Z,7.10
2022-11-04T11:32:22.268Z,6.20
2022-11-04T11:35:33.943Z,7.20
2022-11-04T11:38:40.810Z,7.00
2022-11-04T11:41:57.254Z,7.70
2022-11-04T11:45:10.663Z,7.50
2022-11-04T11:48:34.038Z,7.50
2022-11-04T11:51:41.669Z,7.00
2022-11-04T11:54:52.705Z,8.90
2022-11-04T12:01:42.648Z,7.30
2022-11-04T12:12:22.387Z,7.90
2022-11-04T12:15:55.506Z,8.80
2022-11-04T12:19:21.764Z,9.20
2022-11-04T12:22:39.274Z,8.70
2022-11-04T12:25:54.010Z,8.90
2022-11-04T12:29:14.420Z,8.80
2022-11-04T12:32:29.534Z,9.30
2022-11-04T12:35:50.723Z,8.80
2022-11-04T12:39:25.455Z,9.30
2022-11-04T12:42:42.168Z,9.10
2022-11-04T12:46:01.287Z,9.70
2022-11-04T12:49:37.064Z,9.80
2022-11-04T12:53:03.760Z,10.00
2022-11-04T12:56:13.205Z,10.20
2022-11-04T12:59:40.673Z,10.80
2022-11-04T13:02:51.322Z,11.10
2022-11-04T13:06:04.631Z,10.40
2022-11-04T13:09:15.210Z,10.40
2022-11-04T13:12:24.856Z,10.40
2022-11-04T13:15:35.219Z,10.60
2022-11-04T13:18:45.845Z,13.30
2022-11-04T13:21:52.889Z,11.70
2022-11-04T13:25:03.683Z,12.50
2022-11-04T13:28:14.572Z,11.70
2022-11-04T13:31:29.384Z,13.30
2022-11-04T13:34:46.140Z,11.40
2022-11-04T13:38:00.446Z,11.50
2022-11-04T13:41:31.222Z,12.00
2022-11-04T13:44:43.657Z,11.00
2022-11-04T13:47:54.402Z,11.80
2022-11-04T13:51:04.083Z,11.70
2022-11-04T13:54:24.928Z,11.90
2022-11-04T13:57:32.942Z,11.50
2022-11-04T14:00:40.202Z,11.60
2022-11-04T14:04:03.119Z,11.30
2022-11-04T14:07:10.838Z,11.80
2022-11-04T14:10:46.742Z,10.90
2022-11-04T14:14:17.482Z,11.90
2022-11-04T14:17:58.466Z,11.10
2022-11-04T14:21:11.535Z,11.60
2022-11-04T14:24:20.334Z,11.30
2022-11-04T14:27:36.118Z,11.70
2022-11-04T14:33:56.213Z,11.00
2022-11-04T14:37:04.157Z,11.70
2022-11-04T14:40:28.829Z,11.30
2022-11-04T14:43:36.929Z,12.10
2022-11-04T14:46:46.790Z,12.10
2022-11-04T14:50:01.962Z,12.40
2022-11-04T14:53:12.604Z,12.60
2022-11-04T14:56:24.320Z,12.70
2022-11-04T14:59:31.554Z,16.70
2022-11-04T15:02:38.633Z,25.50
2022-11-04T15:05:50.860Z,16.30
2022-11-04T15:08:57.890Z,14.10
2022-11-04T15:12:30.364Z,14.70
2022-11-04T15:15:40.327Z,12.70
2022-11-04T15:18:47.134Z,13.60
2022-11-04T15:21:53.279Z,13.80
2022-11-04T15:28:15.014Z,13.80
2022-11-04T15:31:23.737Z,14.60
2022-11-04T15:34:31.824Z,12.90
2022-11-04T15:37:41.699Z,13.30
2022-11-04T15:40:48.772Z,13.90
2022-11-04T15:43:55.699Z,13.20
2022-11-04T15:47:03.820Z,12.70
2022-11-04T15:50:23.657Z,13.70
2022-11-04T15:53:29.885Z,13.50
2022-11-04T15:56:42.249Z,13.80
2022-11-04T15:59:53.821Z,13.10
2022-11-04T16:03:02.041Z,12.60
2022-11-04T16:06:10.018Z,13.80
2022-11-04T16:09:28.199Z,12.70
2022-11-04T16:12:38.334Z,12.50
2022-11-04T16:15:48.186Z,13.20
2022-11-04T16:18:57.443Z,12.80
2022-11-04T16:22:09.275Z,12.30
2022-11-04T16:25:24.801Z,13.30
2022-11-04T16:28:36.394Z,13.80
2022-11-04T16:31:42.701Z,13.40
2022-11-04T16:34:53.966Z,14.50
2022-11-04T16:38:03.613Z,19.20
2022-11-04T16:41:09.883Z,17.70
2022-11-04T16:44:22.829Z,16.30
2022-11-04T16:47:30.124Z,14.80
2022-11-04T16:50:36.207Z,19.60
2022-11-04T16:56:46.826Z,16.90
2022-11-04T16:59:53.009Z,16.60
2022-11-04T17:06:03.649Z,24.00
2022-11-04T17:12:18.080Z,17.30
2022-11-04T17:15:24.520Z,20.50
2022-11-04T17:18:33.829Z,22.20
2022-11-04T17:21:40.506Z,16.50
2022-11-04T17:24:46.576Z,18.00
2022-11-04T17:30:57.254Z,19.60
2022-11-04T17:37:07.903Z,18.40
2022-11-04T17:43:38.629Z,16.10
2022-11-04T17:46:47.866Z,19.10
2022-11-04T17:49:53.990Z,15.40
2022-11-04T17:56:04.837Z,17.20
2022-11-04T17:59:12.528Z,17.10
2022-11-04T18:02:18.966Z,17.30
2022-11-04T18:05:25.226Z,15.60
2022-11-04T18:11:53.355Z,16.80
2022-11-04T18:14:59.433Z,17.70
2022-11-04T18:21:11.582Z,15.60
2022-11-04T18:24:19.430Z,14.30
2022-11-04T18:27:25.707Z,14.40
2022-11-04T18:30:31.906Z,13.40
2022-11-04T18:36:42.921Z,14.70
2022-11-04T18:39:48.995Z,13.80
2022-11-04T18:46:00.031Z,15.90
2022-11-04T18:49:06.158Z,14.40
2022-11-04T18:55:16.966Z,13.00
2022-11-04T18:58:25.277Z,14.10
2022-11-04T19:01:33.900Z,15.20
2022-11-04T19:04:40.266Z,16.40
2022-11-04T19:11:00.692Z,18.90
2022-11-04T19:14:09.831Z,15.90
2022-11-04T19:17:16.217Z,21.00
2022-11-04T19:20:23.809Z,19.80
2022-11-04T19:23:31.402Z,18.50
2022-11-04T19:26:38.389Z,21.80
2022-11-04T19:29:44.507Z,18.60
2022-11-04T19:35:56.324Z,26.30
2022-11-04T19:39:03.353Z,25.30
2022-11-04T19:42:28.256Z,24.60
2022-11-04T19:45:34.707Z,22.70
2022-11-04T19:48:40.809Z,25.00
2022-11-04T19:54:51.845Z,25.30
2022-11-04T20:01:07.847Z,24.60
2022-11-04T20:04:14.909Z,27.50
2022-11-04T20:07:21.057Z,30.60
2022-11-04T20:13:47.835Z,27.50
2022-11-04T20:16:54.119Z,24.60
2022-11-04T20:20:00.200Z,27.60
2022-11-04T20:23:06.222Z,30.40
2022-11-04T20:26:20.245Z,32.30
2022-11-04T20:29:26.916Z,26.00
2022-11-04T20:35:38.238Z,24.70
2022-11-04T20:38:44.533Z,24.90
2022-11-04T20:41:50.666Z,23.90
2022-11-04T20:44:56.811Z,24.70
2022-11-04T20:51:12.228Z,24.20
2022-11-04T20:54:18.438Z,22.50
2022-11-04T21:00:29.797Z,20.90
2022-11-04T21:03:36.183Z,26.80
2022-11-04T21:06:42.943Z,27.70
2022-11-04T21:09:51.237Z,26.00
2022-11-04T21:12:57.233Z,29.10
2022-11-04T21:16:03.842Z,27.70
2022-11-04T21:19:11.981Z,27.70
2022-11-04T21:22:18.030Z,28.90
2022-11-04T21:25:24.222Z,25.80
2022-11-04T21:31:36.095Z,28.30
2022-11-04T21:34:42.192Z,27.70
2022-11-04T21:40:52.982Z,25.80
2022-11-04T21:44:00.310Z,26.50
2022-11-04T21:47:06.513Z,24.60
2022-11-04T21:53:24.054Z,23.70
2022-11-04T21:56:33.273Z,23.80
2022-11-04T21:59:39.370Z,22.20
2022-11-04T22:02:47.491Z,21.50
2022-11-04T22:06:01.973Z,22.50
2022-11-04T22:09:10.186Z,20.60
2022-11-04T22:12:16.209Z,20.80
2022-11-04T22:15:36.848Z,20.50
2022-11-04T22:18:43.832Z,19.30
2022-11-04T22:21:50.262Z,20.10
2022-11-04T22:25:03.428Z,20.40
2022-11-04T22:28:09.688Z,19.90
2022-11-04T22:31:18.008Z,19.50
2022-11-04T22:34:25.072Z,19.90
2022-11-04T22:37:31.274Z,18.90
2022-11-04T22:43:42.798Z,20.10
2022-11-04T22:46:48.907Z,18.70
2022-11-04T22:52:59.400Z,21.40
2022-11-04T22:56:06.934Z,18.70
2022-11-04T22:59:13.215Z,18.70
2022-11-04T23:02:19.508Z,18.40
2022-11-04T23:05:27.844Z,19.00
2022-11-04T23:08:35.348Z,20.30
2022-11-04T23:11:59.029Z,21.30
2022-11-04T23:15:23.112Z,20.00
2022-11-04T23:18:44.843Z,19.50
2022-11-04T23:22:08.721Z,19.10
2022-11-04T23:25:15.395Z,18.40
2022-11-04T23:28:35.281Z,18.50
2022-11-04T23:31:41.702Z,18.70
2022-11-04T23:35:05.530Z,17.10
2022-11-04T23:38:11.920Z,17.20
2022-11-04T23:41:35.881Z,19.10
2022-11-04T23:44:59.657Z,19.10
2022-11-04T23:48:29.782Z,18.30
2022-11-04T23:51:53.560Z,20.60
2022-11-04T23:55:17.647Z,21.20
2022-11-04T23:58:41.521Z,19.10
